Time;durP1;ratioP1;P1;durP2;ratioP2;P2;SDS_P1;SDS_P2;PMS_P1;PMS_P2;Temp;Humidity;BMP_temperature;BMP_pressure;BME280_temperature;BME280_humidity;BME280_pressure;Samples;Min_cycle;Max_cycle;Signal;HPM_P1;HPM_P2
2020/12/06 00:02:05;;;;;;;22.83;14.73;;;1.90;99.90;;;;;;4967814;28;20203;-79
2020/12/06 00:04:30;;;;;;;21.93;14.37;;;1.90;99.90;;;;;;4968305;28;20200;-78
2020/12/06 00:06:57;;;;;;;23.30;15.47;;;2.00;99.90;;;;;;4967958;28;20186;-78
2020/12/06 00:09:22;;;;;;;21.80;14.00;;;1.90;99.90;;;;;;4984098;28;20222;-78
2020/12/06 00:11:48;;;;;;;22.70;14.67;;;1.90;99.90;;;;;;4968162;28;20764;-78
2020/12/06 00:14:13;;;;;;;21.30;13.83;;;1.90;99.90;;;;;;4967629;28;20569;-78
2020/12/06 00:16:39;;;;;;;24.93;15.20;;;1.80;99.90;;;;;;4983474;28;20180;-78
2020/12/06 00:19:04;;;;;;;22.77;14.93;;;1.80;99.90;;;;;;4983931;28;20183;-78
2020/12/06 00:21:30;;;;;;;22.70;14.30;;;1.70;99.90;;;;;;4967568;28;20179;-78
2020/12/06 00:23:55;;;;;;;27.30;16.17;;;1.70;99.90;;;;;;4967607;28;20698;-78
2020/12/06 00:26:22;;;;;;;27.93;17.23;;;1.60;99.90;;;;;;4967485;28;20222;-78
2020/12/06 00:28:49;;;;;;;29.53;18.37;;;1.60;99.90;;;;;;4967469;28;20171;-78
2020/12/06 00:31:14;;;;;;;25.70;16.33;;;1.50;99.90;;;;;;4967448;28;20222;-78
2020/12/06 00:33:40;;;;;;;29.93;17.47;;;1.50;99.90;;;;;;4967188;28;20203;-78
2020/12/06 00:36:07;;;;;;;27.47;16.17;;;1.40;99.90;;;;;;4967018;28;20175;-78
2020/12/06 00:38:33;;;;;;;26.30;16.80;;;1.30;99.90;;;;;;4967221;28;20176;-77
2020/12/06 00:40:58;;;;;;;26.07;16.63;;;1.20;99.90;;;;;;4982329;28;20557;-78
2020/12/06 00:43:24;;;;;;;25.40;15.77;;;1.20;99.90;;;;;;4966617;28;20709;-79
2020/12/06 00:45:49;;;;;;;24.63;15.43;;;1.20;99.90;;;;;;4983067;28;20172;-78
2020/12/06 00:48:15;;;;;;;23.53;14.97;;;1.30;99.90;;;;;;4966755;28;20187;-78
2020/12/06 00:50:40;;;;;;;23.87;15.33;;;1.30;99.90;;;;;;4966731;28;20190;-78
2020/12/06 00:53:06;;;;;;;24.33;15.43;;;1.30;99.90;;;;;;4966616;28;20203;-78
2020/12/06 00:55:31;;;;;;;25.17;15.30;;;1.30;99.90;;;;;;4966664;28;20281;-78
2020/12/06 00:57:57;;;;;;;29.37;16.33;;;1.20;99.90;;;;;;4998565;28;20275;-78
2020/12/06 01:00:22;;;;;;;25.00;16.07;;;1.30;99.90;;;;;;4966638;28;20217;-78
2020/12/06 01:02:48;;;;;;;25.03;16.27;;;1.20;99.90;;;;;;4966380;28;20234;-78
2020/12/06 01:05:14;;;;;;;23.83;15.40;;;1.20;99.90;;;;;;4966596;28;20556;-78
2020/12/06 01:07:40;;;;;;;26.17;15.93;;;1.20;99.90;;;;;;4966367;28;20714;-78
2020/12/06 01:10:06;;;;;;;25.03;15.10;;;1.10;99.90;;;;;;4982481;28;20179;-77
2020/12/06 01:12:31;;;;;;;28.53;17.00;;;1.10;99.90;;;;;;4966105;28;20271;-78
2020/12/06 01:14:57;;;;;;;24.47;15.63;;;1.20;99.90;;;;;;4965956;28;20751;-79
2020/12/06 01:17:22;;;;;;;28.93;17.40;;;1.10;99.90;;;;;;4982249;28;20175;-78
2020/12/06 01:19:48;;;;;;;25.63;16.10;;;1.20;99.90;;;;;;4965983;28;20183;-78
2020/12/06 01:22:13;;;;;;;29.23;17.00;;;1.10;99.90;;;;;;4965616;28;20215;-78
2020/12/06 01:24:39;;;;;;;28.03;18.33;;;1.20;99.90;;;;;;4981631;28;20286;-77
2020/12/06 01:27:04;;;;;;;31.40;17.90;;;1.30;99.90;;;;;;4981457;28;20253;-78
2020/12/06 01:29:30;;;;;;;30.87;18.13;;;1.40;99.90;;;;;;4965339;28;20262;-78
2020/12/06 01:31:55;;;;;;;31.37;19.33;;;1.50;99.90;;;;;;4965112;28;20726;-78
2020/12/06 01:34:21;;;;;;;29.33;18.00;;;1.50;99.90;;;;;;4965106;28;20698;-78
2020/12/06 01:36:51;;;;;;;30.20;18.37;;;1.40;99.90;;;;;;4980891;28;20175;-78
2020/12/06 01:39:18;;;;;;;28.93;17.87;;;1.60;99.90;;;;;;4966101;28;20200;-78
2020/12/06 01:41:43;;;;;;;30.93;18.03;;;1.60;99.90;;;;;;4965588;28;20187;-78
2020/12/06 01:44:09;;;;;;;28.70;17.37;;;1.60;99.90;;;;;;4965260;28;20220;-78
2020/12/06 01:46:38;;;;;;;35.30;18.80;;;1.60;99.90;;;;;;4965878;28;20183;-79
2020/12/06 01:49:04;;;;;;;33.23;18.50;;;1.60;99.90;;;;;;4966542;28;20249;-78
2020/12/06 01:51:30;;;;;;;32.40;18.57;;;1.70;99.90;;;;;;4964920;28;20182;-79
2020/12/06 01:53:55;;;;;;;31.47;19.43;;;1.60;99.90;;;;;;4964451;28;20202;-78
2020/12/06 01:56:21;;;;;;;32.60;19.23;;;1.70;99.90;;;;;;4965175;28;20195;-78
2020/12/06 01:58:46;;;;;;;30.07;18.00;;;1.60;99.90;;;;;;4981516;28;20288;-78
2020/12/06 02:01:12;;;;;;;32.30;18.60;;;1.70;99.90;;;;;;4964789;28;20287;-78
2020/12/06 02:03:38;;;;;;;29.30;17.83;;;1.70;99.90;;;;;;4965494;28;20352;-78
2020/12/06 02:06:04;;;;;;;29.60;18.07;;;1.70;99.90;;;;;;4965280;28;20190;-78
2020/12/06 02:08:29;;;;;;;29.20;19.37;;;1.70;99.90;;;;;;4965707;28;20182;-78
2020/12/06 02:10:55;;;;;;;29.17;17.87;;;1.70;99.90;;;;;;4965313;28;20182;-78
2020/12/06 02:13:21;;;;;;;28.83;17.53;;;1.70;99.90;;;;;;4981298;28;20203;-78
2020/12/06 02:15:47;;;;;;;28.87;18.67;;;1.80;99.90;;;;;;4965439;28;20193;-78
2020/12/06 02:18:13;;;;;;;29.27;17.40;;;1.70;99.90;;;;;;4997511;28;20241;-78
2020/12/06 02:20:38;;;;;;;29.33;18.10;;;1.80;99.90;;;;;;4981586;28;20183;-79
2020/12/06 02:23:05;;;;;;;27.47;17.13;;;1.90;99.90;;;;;;4981509;28;20294;-78
2020/12/06 02:25:36;;;;;;;30.40;16.87;;;1.90;99.90;;;;;;4965018;28;20188;-78
2020/12/06 02:28:03;;;;;;;26.93;17.47;;;2.00;99.90;;;;;;4981159;28;20195;-78
2020/12/06 02:30:28;;;;;;;25.63;16.07;;;2.00;99.90;;;;;;4965053;28;20617;-78
2020/12/06 02:32:54;;;;;;;26.37;16.37;;;2.00;99.90;;;;;;4981218;28;20240;-78
2020/12/06 02:35:19;;;;;;;25.80;17.13;;;1.90;99.90;;;;;;4981106;28;20183;-78
2020/12/06 02:37:45;;;;;;;23.90;16.70;;;2.00;99.90;;;;;;4977477;28;20270;-79
2020/12/06 02:40:11;;;;;;;27.17;17.03;;;2.00;99.90;;;;;;5012446;28;20226;-78
2020/12/06 02:42:36;;;;;;;27.20;17.23;;;1.90;99.90;;;;;;5008220;28;20207;-78
2020/12/06 02:45:02;;;;;;;27.43;17.37;;;1.90;99.90;;;;;;4997063;28;20222;-78
2020/12/06 02:47:27;;;;;;;30.10;17.00;;;2.00;99.90;;;;;;4980768;28;20183;-78
2020/12/06 02:49:53;;;;;;;25.87;16.43;;;1.90;99.90;;;;;;4997058;28;20190;-78
2020/12/06 02:52:18;;;;;;;27.90;18.27;;;2.00;99.90;;;;;;4980963;28;20198;-78
2020/12/06 02:54:44;;;;;;;25.00;16.30;;;2.00;99.90;;;;;;4997138;28;20199;-78
2020/12/06 02:57:09;;;;;;;28.57;17.50;;;2.00;99.90;;;;;;4981001;28;20187;-79
2020/12/06 02:59:35;;;;;;;26.30;16.70;;;2.00;99.90;;;;;;4980456;28;20687;-78
2020/12/06 03:02:00;;;;;;;26.60;16.67;;;2.00;99.90;;;;;;4981004;28;20233;-78
2020/12/06 03:04:26;;;;;;;26.43;16.60;;;2.00;99.90;;;;;;4980210;28;20208;-78
2020/12/06 03:06:51;;;;;;;28.73;16.83;;;2.00;99.90;;;;;;4996959;28;20172;-78
2020/12/06 03:09:17;;;;;;;26.83;16.97;;;1.90;99.90;;;;;;4996898;28;20178;-77
2020/12/06 03:11:42;;;;;;;27.73;16.60;;;1.90;99.90;;;;;;4980196;28;20179;-78
2020/12/06 03:14:08;;;;;;;26.87;17.23;;;1.90;99.90;;;;;;4980612;28;20210;-79
2020/12/06 03:16:33;;;;;;;27.10;16.87;;;1.90;99.90;;;;;;4981077;28;20179;-78
2020/12/06 03:18:59;;;;;;;26.20;17.03;;;1.90;99.90;;;;;;4980678;28;20845;-78
2020/12/06 03:21:24;;;;;;;30.07;17.70;;;2.00;99.90;;;;;;4980513;28;20715;-78
2020/12/06 03:23:50;;;;;;;26.40;17.37;;;2.00;99.90;;;;;;4980407;28;20203;-78
2020/12/06 03:26:15;;;;;;;25.70;16.50;;;2.00;99.90;;;;;;4996394;28;20172;-78
2020/12/06 03:28:41;;;;;;;28.03;17.13;;;2.10;99.90;;;;;;4980436;28;20175;-78
2020/12/06 03:31:06;;;;;;;24.57;15.90;;;2.20;99.90;;;;;;4996296;28;20190;-78
2020/12/06 03:33:32;;;;;;;25.47;16.83;;;2.20;99.90;;;;;;4996561;28;20257;-79
2020/12/06 03:35:57;;;;;;;26.27;16.97;;;2.20;99.90;;;;;;4996782;28;20690;-78
2020/12/06 03:38:23;;;;;;;22.77;16.07;;;2.20;99.90;;;;;;4980194;28;20194;-78
2020/12/06 03:40:48;;;;;;;26.20;16.00;;;2.20;99.90;;;;;;4979750;28;20194;-79
2020/12/06 03:43:14;;;;;;;26.60;16.40;;;2.20;99.90;;;;;;4996796;28;20219;-80
2020/12/06 03:45:40;;;;;;;23.63;16.30;;;2.20;99.90;;;;;;4980127;28;20190;-78
2020/12/06 03:48:05;;;;;;;27.67;16.57;;;2.30;99.90;;;;;;4979916;28;20171;-78
2020/12/06 03:50:31;;;;;;;25.37;16.57;;;2.40;99.90;;;;;;4980092;28;20182;-78
2020/12/06 03:52:56;;;;;;;24.03;15.60;;;2.50;99.90;;;;;;4979702;28;20183;-78
2020/12/06 03:55:22;;;;;;;28.67;16.83;;;2.50;99.90;;;;;;4996266;28;20184;-78
2020/12/06 03:57:47;;;;;;;25.70;16.90;;;2.40;99.90;;;;;;4996532;28;20183;-78
2020/12/06 04:00:13;;;;;;;29.17;16.33;;;2.40;99.90;;;;;;4980604;28;20191;-77
2020/12/06 04:02:39;;;;;;;24.83;15.97;;;2.40;99.90;;;;;;4980292;28;20215;-78
2020/12/06 04:05:04;;;;;;;27.90;16.57;;;2.30;99.90;;;;;;4996817;28;20286;-78
2020/12/06 04:07:30;;;;;;;26.10;16.20;;;2.30;99.90;;;;;;4980544;28;20176;-78
2020/12/06 04:09:55;;;;;;;24.43;16.27;;;2.40;99.90;;;;;;4980712;28;20631;-78
2020/12/06 04:12:21;;;;;;;24.90;15.50;;;2.50;99.90;;;;;;4980269;28;20722;-79
2020/12/06 04:14:47;;;;;;;23.07;15.60;;;2.50;99.90;;;;;;4996912;28;20685;-78
2020/12/06 04:17:12;;;;;;;25.60;15.83;;;2.50;99.90;;;;;;4982439;28;20651;-78
2020/12/06 04:19:38;;;;;;;25.57;16.87;;;2.50;99.90;;;;;;4983419;28;20271;-78
2020/12/06 04:22:06;;;;;;;24.97;16.00;;;2.50;99.90;;;;;;4999744;28;20252;-79
2020/12/06 04:24:33;;;;;;;24.23;16.17;;;2.50;99.90;;;;;;4983740;28;20199;-78
2020/12/06 04:26:58;;;;;;;27.50;16.53;;;2.50;99.90;;;;;;4999352;28;20179;-78
2020/12/06 04:29:24;;;;;;;25.60;15.93;;;2.40;99.90;;;;;;4983502;28;20187;-78
2020/12/06 04:31:49;;;;;;;27.17;16.53;;;2.40;99.90;;;;;;4982958;28;20187;-79
2020/12/06 04:34:15;;;;;;;27.57;17.37;;;2.40;99.90;;;;;;4983577;28;20257;-78
2020/12/06 04:36:40;;;;;;;27.73;17.43;;;2.40;99.90;;;;;;4982806;28;20184;-78
2020/12/06 04:39:06;;;;;;;25.50;16.60;;;2.40;99.90;;;;;;4983201;28;20229;-78
2020/12/06 04:41:31;;;;;;;29.87;16.87;;;2.40;99.90;;;;;;4983009;28;20629;-78
2020/12/06 04:43:57;;;;;;;27.77;17.37;;;2.30;99.90;;;;;;4999552;28;20596;-78
2020/12/06 04:46:23;;;;;;;26.73;16.50;;;2.30;99.90;;;;;;4983570;28;20670;-78
2020/12/06 04:48:56;;;;;;;24.53;16.30;;;2.30;99.90;;;;;;4983211;28;20187;-78
2020/12/06 04:51:23;;;;;;;26.43;17.10;;;2.30;99.90;;;;;;4983666;28;20183;-78
2020/12/06 04:53:55;;;;;;;25.53;16.80;;;2.30;99.90;;;;;;4982942;28;20211;-78
2020/12/06 04:56:21;;;;;;;25.97;16.70;;;2.30;99.90;;;;;;4982913;28;20195;-78
2020/12/06 04:58:47;;;;;;;25.60;16.93;;;2.40;99.90;;;;;;4983573;28;20703;-78
2020/12/06 05:01:13;;;;;;;25.90;16.20;;;2.50;99.90;;;;;;4983422;28;20247;-78
2020/12/06 05:03:38;;;;;;;28.70;16.37;;;2.50;99.90;;;;;;4984054;28;20290;-78
2020/12/06 05:06:05;;;;;;;25.07;16.63;;;2.60;99.90;;;;;;4983414;28;20176;-78
2020/12/06 05:08:33;;;;;;;25.30;16.50;;;2.60;99.90;;;;;;4999542;28;20544;-78
2020/12/06 05:10:59;;;;;;;26.87;16.70;;;2.60;99.90;;;;;;4983603;28;20190;-78
2020/12/06 05:13:24;;;;;;;25.97;16.17;;;2.70;99.90;;;;;;4983526;28;20199;-78
2020/12/06 05:15:50;;;;;;;28.37;17.43;;;2.60;99.90;;;;;;4999169;28;20279;-78
2020/12/06 05:18:15;;;;;;;24.83;16.40;;;2.60;99.90;;;;;;4982813;28;20214;-78
2020/12/06 05:20:41;;;;;;;26.03;16.90;;;2.50;99.90;;;;;;4982823;28;20184;-78
2020/12/06 05:23:07;;;;;;;25.43;16.97;;;2.50;99.90;;;;;;4982774;28;20287;-78
2020/12/06 05:25:33;;;;;;;27.63;16.90;;;2.50;99.90;;;;;;4982545;28;20184;-78
2020/12/06 05:27:58;;;;;;;25.17;16.23;;;2.50;99.90;;;;;;4982519;28;20189;-78
2020/12/06 05:30:24;;;;;;;25.57;15.73;;;2.50;99.90;;;;;;4982559;28;20181;-78
2020/12/06 05:32:49;;;;;;;27.13;17.07;;;2.50;99.90;;;;;;4982730;28;20658;-78
2020/12/06 05:35:15;;;;;;;25.90;16.37;;;2.50;99.90;;;;;;4998543;28;20187;-78
2020/12/06 05:37:42;;;;;;;24.57;16.13;;;2.60;99.90;;;;;;4982271;28;20211;-78
2020/12/06 05:40:09;;;;;;;27.70;16.47;;;2.70;99.90;;;;;;4981902;28;20210;-78
2020/12/06 05:42:37;;;;;;;25.63;15.87;;;2.60;99.90;;;;;;4982030;28;20298;-78
2020/12/06 05:45:03;;;;;;;25.33;16.10;;;2.60;99.90;;;;;;4981963;28;20302;-78
2020/12/06 05:47:29;;;;;;;23.17;15.47;;;2.60;99.90;;;;;;4981781;28;20277;-78
2020/12/06 05:49:55;;;;;;;28.03;16.70;;;2.60;99.90;;;;;;4981910;28;20203;-78
2020/12/06 05:52:21;;;;;;;27.83;17.50;;;2.60;99.90;;;;;;4981438;28;20202;-78
2020/12/06 05:54:48;;;;;;;25.17;16.47;;;2.60;99.90;;;;;;4980313;28;20223;-78
2020/12/06 05:57:13;;;;;;;28.50;17.87;;;2.50;99.90;;;;;;4981013;28;20233;-78
2020/12/06 05:59:39;;;;;;;24.37;16.37;;;2.50;99.90;;;;;;4982001;28;20187;-78
2020/12/06 06:02:05;;;;;;;24.37;15.70;;;2.60;99.90;;;;;;4997733;28;20180;-78
2020/12/06 06:04:33;;;;;;;25.60;16.90;;;2.60;99.90;;;;;;4981555;28;20290;-78
2020/12/06 06:06:59;;;;;;;25.97;16.30;;;2.50;99.90;;;;;;4997743;28;20175;-78
2020/12/06 06:09:25;;;;;;;23.23;16.23;;;2.60;99.90;;;;;;4997392;28;20174;-78
2020/12/06 06:11:55;;;;;;;25.77;16.53;;;2.60;99.90;;;;;;4981096;28;20301;-78
2020/12/06 06:14:21;;;;;;;24.17;16.17;;;2.60;99.90;;;;;;4981319;28;20226;-78
2020/12/06 06:16:47;;;;;;;26.30;16.93;;;2.60;99.90;;;;;;4996872;28;20627;-78
2020/12/06 06:19:12;;;;;;;24.97;16.20;;;2.60;99.90;;;;;;4981210;28;20626;-78
2020/12/06 06:21:39;;;;;;;27.93;16.80;;;2.60;99.90;;;;;;4981073;28;20236;-78
2020/12/06 06:24:16;;;;;;;26.80;17.53;;;2.70;99.90;;;;;;4980737;28;20271;-78
2020/12/06 06:26:43;;;;;;;27.43;16.87;;;2.70;99.90;;;;;;4980856;28;20181;-78
2020/12/06 06:29:17;;;;;;;27.13;16.80;;;2.70;99.90;;;;;;4981519;28;20666;-78
2020/12/06 06:31:48;;;;;;;26.30;16.13;;;2.70;99.90;;;;;;4997460;28;20730;-79
2020/12/06 06:34:14;;;;;;;28.77;17.20;;;2.80;99.90;;;;;;4997489;28;20225;-78
2020/12/06 06:36:42;;;;;;;26.27;16.40;;;2.80;99.90;;;;;;4996057;28;20182;-78
2020/12/06 06:39:08;;;;;;;27.43;17.43;;;2.80;99.90;;;;;;4979866;28;20183;-79
2020/12/06 06:41:35;;;;;;;24.10;15.80;;;2.80;99.90;;;;;;4979723;28;20187;-79
2020/12/06 06:44:02;;;;;;;24.10;16.03;;;2.80;99.90;;;;;;4979728;28;20265;-78
2020/12/06 06:46:34;;;;;;;25.67;16.73;;;2.80;99.90;;;;;;4980477;28;20188;-78
2020/12/06 06:49:10;;;;;;;26.90;17.57;;;2.80;99.90;;;;;;4980645;28;20222;-78
2020/12/06 06:51:36;;;;;;;26.17;16.70;;;2.80;99.90;;;;;;4980761;28;20183;-78
2020/12/06 06:54:04;;;;;;;28.13;17.03;;;2.80;99.90;;;;;;4980515;28;20210;-78
2020/12/06 06:56:30;;;;;;;25.23;17.40;;;2.70;99.90;;;;;;4980599;28;20193;-78
2020/12/06 06:58:55;;;;;;;28.40;18.40;;;2.70;99.90;;;;;;4980096;28;20183;-79
2020/12/06 07:01:22;;;;;;;27.97;18.63;;;2.80;99.90;;;;;;4979205;28;20182;-78
2020/12/06 07:03:51;;;;;;;28.60;18.83;;;2.70;99.90;;;;;;4980560;28;20219;-79
2020/12/06 07:06:42;;;;;;;31.33;18.80;;;2.70;99.90;;;;;;4996505;28;20176;-78
2020/12/06 07:09:08;;;;;;;29.20;19.13;;;2.70;99.90;;;;;;4996814;28;20175;-79
2020/12/06 07:11:33;;;;;;;30.70;19.57;;;2.60;99.90;;;;;;4980567;28;20190;-78
2020/12/06 07:14:01;;;;;;;32.97;20.60;;;2.60;99.90;;;;;;4995765;28;20249;-77
2020/12/06 07:16:26;;;;;;;31.63;20.43;;;2.60;99.90;;;;;;5012841;28;20194;-78
2020/12/06 07:18:52;;;;;;;27.73;18.83;;;2.60;99.90;;;;;;4995795;28;20186;-78
2020/12/06 07:21:17;;;;;;;31.90;19.43;;;2.60;99.90;;;;;;4996863;28;20183;-78
2020/12/06 07:23:43;;;;;;;31.03;19.20;;;2.60;99.90;;;;;;4996333;28;20881;-78
2020/12/06 07:26:09;;;;;;;30.17;19.07;;;2.60;99.90;;;;;;4997613;28;20186;-78
2020/12/06 07:28:35;;;;;;;29.40;18.70;;;2.60;99.90;;;;;;5014636;28;20171;-78
2020/12/06 07:31:00;;;;;;;29.00;18.13;;;2.60;99.90;;;;;;4997321;28;20186;-78
2020/12/06 07:33:26;;;;;;;28.30;18.03;;;2.70;99.90;;;;;;4997103;28;20285;-79
2020/12/06 07:35:51;;;;;;;33.53;18.53;;;2.70;99.90;;;;;;4997300;28;20179;-77
2020/12/06 07:38:17;;;;;;;31.13;18.47;;;2.70;99.90;;;;;;5000598;28;20180;-78
2020/12/06 07:40:43;;;;;;;30.17;17.90;;;2.70;99.90;;;;;;4998226;28;20186;-78
2020/12/06 07:43:12;;;;;;;28.70;18.93;;;2.70;99.90;;;;;;5000863;28;20215;-78
2020/12/06 07:45:39;;;;;;;30.13;19.07;;;2.70;99.90;;;;;;5016244;28;20528;-78
2020/12/06 07:48:05;;;;;;;29.50;19.40;;;2.70;99.90;;;;;;5005123;28;20193;-78
2020/12/06 07:50:30;;;;;;;27.53;18.07;;;2.80;99.90;;;;;;5024657;28;20203;-78
2020/12/06 07:53:01;;;;;;;29.83;18.47;;;2.90;99.90;;;;;;5011027;28;20182;-78
2020/12/06 07:55:26;;;;;;;31.37;19.63;;;2.90;99.90;;;;;;5007978;28;20532;-78
2020/12/06 07:57:53;;;;;;;31.67;19.00;;;2.90;99.90;;;;;;5003263;28;20182;-77
2020/12/06 08:00:19;;;;;;;33.40;19.10;;;3.00;99.90;;;;;;5001780;28;20210;-80
2020/12/06 08:02:58;;;;;;;30.13;20.00;;;3.00;99.90;;;;;;5001728;28;20690;-79
2020/12/06 08:05:26;;;;;;;31.03;19.53;;;3.00;99.90;;;;;;5001335;28;20201;-75
2020/12/06 08:08:18;;;;;;;28.63;18.10;;;3.00;99.90;;;;;;5017607;28;20228;-77
2020/12/06 08:10:43;;;;;;;33.70;20.30;;;3.10;99.90;;;;;;5001931;28;20191;-77
2020/12/06 08:13:10;;;;;;;30.17;19.23;;;3.10;99.90;;;;;;5001601;28;20212;-80
2020/12/06 08:15:36;;;;;;;28.37;19.20;;;3.10;99.90;;;;;;5018102;28;20185;-80
2020/12/06 08:18:01;;;;;;;30.57;19.73;;;3.10;99.90;;;;;;5002562;28;20266;-79
2020/12/06 08:20:27;;;;;;;30.57;19.17;;;3.10;99.90;;;;;;5000482;28;20667;-80
2020/12/06 08:22:53;;;;;;;30.57;19.17;;;3.20;99.90;;;;;;5017805;28;20803;-80
2020/12/06 08:25:24;;;;;;;29.50;18.50;;;3.20;99.90;;;;;;5001591;28;20179;-79
2020/12/06 08:27:50;;;;;;;32.43;19.37;;;3.20;99.90;;;;;;5018007;28;20185;-80
2020/12/06 08:30:16;;;;;;;33.10;20.53;;;3.20;99.90;;;;;;5001104;28;20563;-79
2020/12/06 08:32:56;;;;;;;30.07;19.43;;;3.20;99.90;;;;;;5003801;28;20646;-80
2020/12/06 08:35:42;;;;;;;29.00;18.97;;;3.20;99.90;;;;;;5004995;28;20554;-81
2020/12/06 08:38:21;;;;;;;30.07;19.10;;;3.20;99.90;;;;;;5005454;28;20220;-82
2020/12/06 08:41:05;;;;;;;30.63;20.37;;;3.20;99.90;;;;;;5000971;28;20292;-79
2020/12/06 08:43:49;;;;;;;34.53;20.47;;;3.20;99.90;;;;;;5034556;28;20219;-80
2020/12/06 08:46:23;;;;;;;30.40;19.07;;;3.30;99.90;;;;;;5017119;28;20174;-80
2020/12/06 08:48:49;;;;;;;32.90;19.97;;;3.20;99.90;;;;;;5018112;28;20164;-80
2020/12/06 08:51:25;;;;;;;31.53;21.07;;;3.20;99.90;;;;;;5000744;28;20194;-80
2020/12/06 08:53:50;;;;;;;31.37;20.43;;;3.20;99.90;;;;;;5016979;28;20673;-79
2020/12/06 08:56:43;;;;;;;34.10;20.33;;;3.30;99.90;;;;;;5017168;28;20292;-80
2020/12/06 08:59:15;;;;;;;34.77;21.67;;;3.30;99.90;;;;;;5015100;28;20198;-79
2020/12/06 09:01:53;;;;;;;32.73;20.57;;;3.40;99.90;;;;;;5016482;28;20186;-80
2020/12/06 09:04:19;;;;;;;31.47;20.57;;;3.50;99.90;;;;;;5018221;28;20622;-79
2020/12/06 09:06:45;;;;;;;33.40;20.00;;;3.50;99.90;;;;;;5017889;28;20175;-80
2020/12/06 09:09:10;;;;;;;32.37;20.63;;;3.50;99.90;;;;;;5018342;28;20175;-80
2020/12/06 09:11:36;;;;;;;30.90;20.43;;;3.60;99.90;;;;;;5020500;28;20179;-80
2020/12/06 09:14:02;;;;;;;31.77;21.03;;;3.60;99.90;;;;;;5018389;28;20222;-80
2020/12/06 09:16:27;;;;;;;33.73;20.47;;;3.60;99.90;;;;;;5002430;28;20526;-77
2020/12/06 09:18:53;;;;;;;29.83;20.17;;;3.60;99.90;;;;;;5002514;28;20198;-79
2020/12/06 09:21:19;;;;;;;34.47;21.73;;;3.60;99.90;;;;;;5019378;28;20178;-78
2020/12/06 09:23:45;;;;;;;38.67;22.53;;;3.70;99.90;;;;;;5002532;28;20241;-77
2020/12/06 09:26:10;;;;;;;31.40;19.93;;;3.70;99.90;;;;;;5016985;28;20170;-77
2020/12/06 09:28:36;;;;;;;31.10;20.03;;;3.80;99.90;;;;;;5017863;28;20198;-78
2020/12/06 09:31:02;;;;;;;31.60;20.63;;;3.80;99.90;;;;;;5018878;28;20202;-79
2020/12/06 09:33:27;;;;;;;34.17;21.30;;;3.80;99.90;;;;;;5001172;28;20209;-81
2020/12/06 09:35:53;;;;;;;33.57;21.23;;;3.80;99.90;;;;;;5017630;28;20182;-78
2020/12/06 09:38:19;;;;;;;31.13;20.57;;;3.90;99.90;;;;;;5018319;28;20170;-77
2020/12/06 09:40:44;;;;;;;35.13;21.40;;;3.90;99.90;;;;;;5001791;28;20171;-80
2020/12/06 09:43:10;;;;;;;30.57;20.40;;;3.90;99.90;;;;;;5004557;28;20430;-79
2020/12/06 09:45:35;;;;;;;29.70;20.40;;;4.00;99.90;;;;;;5017019;23;20227;-83
2020/12/06 09:48:01;;;;;;;32.00;20.63;;;4.00;99.90;;;;;;4983329;28;20182;-82
2020/12/06 09:53:49;;;;;;;31.87;20.00;;;4.10;99.90;;;;;;5033596;28;20521;-81
2020/12/06 09:56:15;;;;;;;31.43;20.33;;;4.20;99.90;;;;;;4983163;28;20531;-80
2020/12/06 09:58:41;;;;;;;30.97;18.53;;;4.20;99.90;;;;;;4983270;28;20184;-80
2020/12/06 10:01:06;;;;;;;30.30;19.77;;;4.30;99.90;;;;;;4983040;28;20203;-82
2020/12/06 10:03:32;;;;;;;30.00;19.00;;;4.30;99.90;;;;;;4983834;28;20691;-84
2020/12/06 10:05:57;;;;;;;30.83;20.33;;;4.30;99.90;;;;;;4984170;28;20178;-83
2020/12/06 10:08:23;;;;;;;31.03;20.43;;;4.30;99.90;;;;;;4984871;28;20175;-83
2020/12/06 10:10:49;;;;;;;33.67;21.27;;;4.30;99.90;;;;;;4983947;28;20197;-83
2020/12/06 10:13:14;;;;;;;33.03;20.17;;;4.30;99.90;;;;;;4983416;28;20187;-82
2020/12/06 10:15:42;;;;;;;31.33;20.87;;;4.30;99.90;;;;;;4983769;28;20272;-82
2020/12/06 10:18:08;;;;;;;28.43;19.30;;;4.30;99.90;;;;;;4985023;28;20187;-82
2020/12/06 10:20:33;;;;;;;33.20;20.60;;;4.30;99.90;;;;;;4984532;28;20202;-83
2020/12/06 10:22:59;;;;;;;31.00;19.93;;;4.20;99.90;;;;;;4984630;28;20213;-83
2020/12/06 10:25:25;;;;;;;32.80;21.63;;;4.20;99.90;;;;;;4984385;28;20177;-82
2020/12/06 10:27:50;;;;;;;32.73;20.63;;;4.20;99.90;;;;;;4984558;28;20183;-83
2020/12/06 10:30:16;;;;;;;29.97;20.60;;;4.20;99.90;;;;;;4984720;28;20209;-83
2020/12/06 10:32:42;;;;;;;30.73;21.50;;;4.20;99.90;;;;;;4985021;28;20190;-83
2020/12/06 10:35:07;;;;;;;33.47;21.37;;;4.30;99.90;;;;;;4984862;28;20588;-84
2020/12/06 10:37:33;;;;;;;34.27;21.57;;;4.20;99.90;;;;;;4984569;28;20179;-82
2020/12/06 10:39:58;;;;;;;32.90;21.43;;;4.30;99.90;;;;;;4983948;28;20234;-83
2020/12/06 10:42:24;;;;;;;31.83;20.73;;;4.20;99.90;;;;;;4983859;28;20189;-83
2020/12/06 10:44:50;;;;;;;32.07;20.80;;;4.20;99.90;;;;;;4984149;28;20186;-84
2020/12/06 10:47:18;;;;;;;32.33;21.50;;;4.20;99.90;;;;;;5000456;28;20254;-83
2020/12/06 10:49:45;;;;;;;36.27;22.90;;;4.10;99.90;;;;;;4984729;28;20188;-84
2020/12/06 10:52:11;;;;;;;35.93;22.13;;;4.10;99.90;;;;;;4993582;28;20187;-84
2020/12/06 10:54:37;;;;;;;31.93;21.53;;;4.10;99.90;;;;;;5004902;28;20184;-85
2020/12/06 10:57:03;;;;;;;33.30;22.90;;;4.10;99.90;;;;;;5004198;28;20184;-85
2020/12/06 10:59:29;;;;;;;31.80;21.10;;;4.10;99.90;;;;;;4984259;28;20183;-84
2020/12/06 11:01:57;;;;;;;35.07;22.03;;;4.20;99.90;;;;;;4981895;28;20226;-83
2020/12/06 11:04:22;;;;;;;33.17;21.00;;;4.20;99.90;;;;;;4981476;28;20240;-84
2020/12/06 11:06:48;;;;;;;32.40;22.13;;;4.20;99.90;;;;;;4981725;28;20184;-84
2020/12/06 11:09:14;;;;;;;35.20;21.83;;;4.20;99.90;;;;;;4981818;28;20179;-85
2020/12/06 11:11:39;;;;;;;33.27;21.63;;;4.20;99.90;;;;;;5004988;28;20698;-84
2020/12/06 11:14:05;;;;;;;33.37;21.77;;;4.20;99.90;;;;;;5004000;28;20690;-84
2020/12/06 11:16:30;;;;;;;34.23;22.33;;;4.20;99.90;;;;;;5004996;28;20209;-83
2020/12/06 11:18:56;;;;;;;37.77;23.87;;;4.30;99.90;;;;;;5004870;28;20185;-82
2020/12/06 11:21:22;;;;;;;36.37;24.20;;;4.20;99.90;;;;;;5002746;28;20201;-85
2020/12/06 11:23:48;;;;;;;35.37;23.50;;;4.30;99.90;;;;;;4983623;28;20585;-83
2020/12/06 11:26:17;;;;;;;32.73;21.83;;;4.30;99.90;;;;;;5000990;28;20180;-83
2020/12/06 11:28:45;;;;;;;31.87;21.47;;;4.30;99.90;;;;;;4989743;28;20212;-83
2020/12/06 11:31:11;;;;;;;34.93;22.47;;;4.40;99.90;;;;;;5002088;28;20203;-83
2020/12/06 11:33:36;;;;;;;37.00;23.63;;;4.30;99.90;;;;;;4991078;28;20232;-81
2020/12/06 11:36:02;;;;;;;38.70;24.73;;;4.30;99.90;;;;;;5004013;28;20646;-85
2020/12/06 11:38:28;;;;;;;35.23;23.03;;;4.20;99.90;;;;;;4990436;28;20205;-84
2020/12/06 11:40:53;;;;;;;39.80;24.40;;;4.20;99.90;;;;;;4987787;28;20203;-82
2020/12/06 11:43:19;;;;;;;38.07;23.93;;;4.30;99.90;;;;;;4995622;28;20305;-85
2020/12/06 11:45:45;;;;;;;38.30;25.00;;;4.30;99.90;;;;;;4988376;28;20656;-82
2020/12/06 11:48:10;;;;;;;35.60;23.13;;;4.30;99.90;;;;;;5005156;28;20184;-84
2020/12/06 11:50:36;;;;;;;37.10;24.23;;;4.30;99.90;;;;;;5003816;28;20195;-83
2020/12/06 11:53:02;;;;;;;35.67;24.37;;;4.30;99.90;;;;;;5005996;28;20656;-83
2020/12/06 11:55:28;;;;;;;40.20;24.73;;;4.40;99.90;;;;;;4986476;28;20534;-83
2020/12/06 11:57:54;;;;;;;35.77;24.17;;;4.30;99.90;;;;;;4985754;28;20217;-83
2020/12/06 12:00:19;;;;;;;38.03;24.60;;;4.30;99.90;;;;;;4983126;28;20687;-83
2020/12/06 12:02:45;;;;;;;38.00;23.57;;;4.40;99.90;;;;;;4996898;28;20206;-83
2020/12/06 12:05:11;;;;;;;39.87;24.33;;;4.30;99.90;;;;;;4986418;28;20525;-84
2020/12/06 12:07:37;;;;;;;38.27;24.57;;;4.30;99.90;;;;;;4986486;28;20256;-84
2020/12/06 12:10:03;;;;;;;37.57;22.67;;;4.40;99.90;;;;;;4989545;28;20236;-83
2020/12/06 12:12:28;;;;;;;38.43;23.77;;;4.40;99.90;;;;;;4986388;28;20237;-82
2020/12/06 12:14:54;;;;;;;38.37;24.40;;;4.40;99.90;;;;;;4972553;28;20187;-83
2020/12/06 12:17:20;;;;;;;39.90;24.80;;;4.40;99.90;;;;;;4996017;28;20184;-83
2020/12/06 12:19:45;;;;;;;39.00;24.40;;;4.30;99.90;;;;;;5001098;28;20189;-84
2020/12/06 12:22:11;;;;;;;46.13;26.13;;;4.30;99.90;;;;;;4986131;28;20752;-83
2020/12/06 12:24:37;;;;;;;41.63;26.47;;;4.30;99.90;;;;;;5020859;28;20281;-85
2020/12/06 12:27:02;;;;;;;39.60;24.33;;;4.30;99.90;;;;;;4994150;28;20604;-82
2020/12/06 12:29:28;;;;;;;42.40;26.07;;;4.30;99.90;;;;;;5008715;28;20640;-83
2020/12/06 12:31:54;;;;;;;40.60;25.77;;;4.30;99.90;;;;;;5008311;28;20213;-84
2020/12/06 12:34:20;;;;;;;39.77;24.80;;;4.30;99.90;;;;;;5007225;28;20175;-82
2020/12/06 12:36:45;;;;;;;43.40;25.90;;;4.30;99.90;;;;;;4982419;28;20186;-84